createdAt,value
2022-08-27T00:02:18.227Z,22.43
2022-08-27T00:04:47.514Z,22.40
2022-08-27T00:07:16.633Z,21.81
2022-08-27T00:09:45.106Z,22.19
2022-08-27T00:12:13.640Z,22.13
2022-08-27T00:14:42.034Z,21.40
2022-08-27T00:17:11.238Z,21.97
2022-08-27T00:19:40.661Z,22.09
2022-08-27T00:22:10.197Z,21.07
2022-08-27T00:24:46.389Z,21.27
2022-08-27T00:27:18.535Z,21.45
2022-08-27T00:29:48.232Z,21.54
2022-08-27T00:32:17.062Z,21.69
2022-08-27T00:34:45.956Z,21.72
2022-08-27T00:37:14.794Z,21.68
2022-08-27T00:39:43.339Z,21.67
2022-08-27T00:42:13.203Z,21.19
2022-08-27T00:44:41.695Z,21.23
2022-08-27T00:47:17.076Z,21.51
2022-08-27T00:50:08.012Z,21.49
2022-08-27T00:52:54.509Z,21.49
2022-08-27T00:55:28.725Z,21.52
2022-08-27T00:58:09.255Z,21.36
2022-08-27T01:00:38.085Z,21.54
2022-08-27T01:03:07.506Z,21.32
2022-08-27T01:05:36.978Z,21.21
2022-08-27T01:08:14.726Z,21.21
2022-08-27T01:10:44.204Z,21.11
2022-08-27T01:13:16.542Z,20.91
2022-08-27T01:15:46.667Z,20.85
2022-08-27T01:18:16.042Z,20.74
2022-08-27T01:20:56.432Z,20.84
2022-08-27T01:23:50.744Z,20.47
2022-08-27T01:26:20.526Z,20.69
2022-08-27T01:28:49.399Z,20.71
2022-08-27T01:31:17.914Z,20.72
2022-08-27T01:34:00.386Z,20.61
2022-08-27T01:36:29.740Z,20.34
2022-08-27T01:38:58.722Z,20.29
2022-08-27T01:41:27.409Z,20.47
2022-08-27T01:43:55.979Z,20.58
2022-08-27T01:46:27.737Z,20.57
2022-08-27T01:48:56.392Z,20.62
2022-08-27T01:51:24.827Z,20.56
2022-08-27T01:53:53.532Z,20.62
2022-08-27T01:56:22.053Z,20.56
2022-08-27T01:58:50.503Z,20.62
2022-08-27T02:01:19.575Z,20.73
2022-08-27T02:03:49.372Z,20.68
2022-08-27T02:06:17.830Z,20.51
2022-08-27T02:08:46.590Z,20.57
2022-08-27T02:11:15.100Z,20.54
2022-08-27T02:13:43.548Z,20.61
2022-08-27T02:16:13.211Z,20.82
2022-08-27T02:18:42.654Z,20.73
2022-08-27T02:21:11.819Z,20.71
2022-08-27T02:23:42.048Z,20.81
2022-08-27T02:26:10.819Z,20.59
2022-08-27T02:28:39.251Z,20.57
2022-08-27T02:31:07.963Z,20.66
2022-08-27T02:33:36.515Z,20.55
2022-08-27T02:36:06.072Z,20.46
2022-08-27T02:38:35.064Z,20.61
2022-08-27T02:41:03.622Z,20.95
2022-08-27T02:43:32.116Z,20.99
2022-08-27T02:46:01.515Z,21.06
2022-08-27T02:48:30.212Z,20.86
2022-08-27T02:50:58.629Z,20.72
2022-08-27T02:53:28.476Z,20.55
2022-08-27T02:55:56.927Z,20.40
2022-08-27T02:58:25.780Z,20.31
2022-08-27T03:00:54.326Z,20.25
2022-08-27T03:03:22.898Z,20.25
2022-08-27T03:05:52.586Z,20.19
2022-08-27T03:08:21.015Z,20.27
2022-08-27T03:10:50.541Z,20.70
2022-08-27T03:13:19.142Z,20.52
2022-08-27T03:15:48.165Z,20.35
2022-08-27T03:18:19.670Z,20.31
2022-08-27T03:20:53.801Z,20.23
2022-08-27T03:23:25.312Z,20.32
2022-08-27T03:25:58.218Z,20.52
2022-08-27T03:28:32.917Z,20.42
2022-08-27T03:31:05.705Z,20.31
2022-08-27T03:33:37.818Z,20.28
2022-08-27T03:36:07.433Z,20.38
2022-08-27T03:38:36.421Z,20.12
2022-08-27T03:41:06.552Z,20.11
2022-08-27T03:43:35.548Z,20.05
2022-08-27T03:46:04.059Z,20.20
2022-08-27T03:48:34.043Z,20.34
2022-08-27T03:51:13.405Z,20.47
2022-08-27T03:53:44.367Z,20.44
2022-08-27T03:56:14.539Z,20.43
2022-08-27T03:58:42.957Z,20.53
2022-08-27T04:01:11.588Z,20.78
2022-08-27T04:03:40.165Z,20.72
2022-08-27T04:06:10.446Z,20.80
2022-08-27T04:08:38.933Z,20.80
2022-08-27T04:11:07.786Z,20.81
2022-08-27T04:13:36.711Z,20.92
2022-08-27T04:16:05.932Z,20.64
2022-08-27T04:18:34.423Z,20.57
2022-08-27T04:21:13.795Z,20.45
2022-08-27T04:23:43.245Z,20.16
2022-08-27T04:26:12.198Z,20.05
2022-08-27T04:28:40.756Z,20.11
2022-08-27T04:31:16.622Z,20.09
2022-08-27T04:33:50.780Z,20.06
2022-08-27T04:36:20.511Z,19.97
2022-08-27T04:38:49.803Z,20.01
2022-08-27T04:41:26.382Z,20.02
2022-08-27T04:43:57.756Z,20.06
2022-08-27T04:46:30.501Z,19.96
2022-08-27T04:49:01.475Z,19.93
2022-08-27T04:51:31.156Z,20.08
2022-08-27T04:54:02.868Z,20.13
2022-08-27T04:56:31.750Z,20.18
2022-08-27T04:59:03.438Z,20.18
2022-08-27T05:01:32.171Z,20.22
2022-08-27T05:04:00.765Z,20.49
2022-08-27T05:06:29.853Z,20.32
2022-08-27T05:08:59.008Z,20.34
2022-08-27T05:11:32.209Z,20.27
2022-08-27T05:14:09.533Z,20.32
2022-08-27T05:16:38.186Z,20.32
2022-08-27T05:19:09.658Z,20.43
2022-08-27T05:21:40.178Z,20.25
2022-08-27T05:24:08.717Z,20.06
2022-08-27T05:26:37.834Z,19.98
2022-08-27T05:29:06.627Z,20.18
2022-08-27T05:31:35.909Z,20.30
2022-08-27T05:34:10.564Z,20.39
2022-08-27T05:36:48.921Z,20.56
2022-08-27T05:39:17.790Z,20.54
2022-08-27T05:41:46.519Z,20.54
2022-08-27T05:47:05.668Z,21.05
2022-08-27T05:49:34.132Z,21.23
2022-08-27T05:52:02.830Z,21.25
2022-08-27T05:54:31.381Z,21.36
2022-08-27T05:56:59.822Z,21.45
2022-08-27T05:59:47.888Z,21.26
2022-08-27T06:02:16.356Z,21.20
2022-08-27T06:04:44.790Z,21.36
2022-08-27T06:07:13.807Z,21.31
2022-08-27T06:09:43.360Z,21.33
2022-08-27T06:12:12.111Z,21.21
2022-08-27T06:14:40.573Z,21.28
2022-08-27T06:17:09.103Z,21.32
2022-08-27T06:19:37.817Z,21.39
2022-08-27T06:22:10.717Z,21.62
2022-08-27T06:24:41.445Z,21.31
2022-08-27T06:27:14.090Z,21.58
2022-08-27T06:29:43.629Z,21.64
2022-08-27T06:32:14.277Z,21.70
2022-08-27T06:34:43.079Z,21.67
2022-08-27T06:37:11.547Z,21.86
2022-08-27T06:39:40.094Z,22.00
2022-08-27T06:42:13.225Z,21.83
2022-08-27T06:44:42.033Z,21.45
2022-08-27T06:47:10.700Z,21.51
2022-08-27T06:49:41.095Z,21.45
2022-08-27T06:52:09.489Z,21.58
2022-08-27T06:54:39.730Z,21.46
2022-08-27T06:57:08.202Z,21.57
2022-08-27T06:59:36.587Z,21.29
2022-08-27T07:02:07.577Z,21.37
2022-08-27T07:04:36.255Z,21.06
2022-08-27T07:07:04.821Z,21.18
2022-08-27T07:09:34.079Z,21.43
2022-08-27T07:12:03.809Z,21.43
2022-08-27T07:14:37.123Z,21.60
2022-08-27T07:17:10.722Z,21.65
2022-08-27T07:19:40.909Z,21.59
2022-08-27T07:22:10.759Z,21.21
2022-08-27T07:24:40.046Z,21.17
2022-08-27T07:27:08.712Z,21.63
2022-08-27T07:29:37.208Z,21.75
2022-08-27T07:32:05.751Z,21.87
2022-08-27T07:34:34.191Z,21.92
2022-08-27T07:37:02.668Z,21.87
2022-08-27T07:39:31.231Z,21.75
2022-08-27T07:42:18.395Z,21.52
2022-08-27T07:44:47.640Z,21.73
2022-08-27T07:47:16.073Z,22.06
2022-08-27T07:49:44.628Z,21.86
2022-08-27T07:52:13.196Z,21.13
2022-08-27T07:54:42.317Z,21.48
2022-08-27T07:57:11.584Z,21.63
2022-08-27T07:59:40.043Z,21.62
2022-08-27T08:02:08.595Z,21.89
2022-08-27T08:04:37.196Z,22.17
2022-08-27T08:07:05.672Z,22.25
2022-08-27T08:09:34.134Z,21.85
2022-08-27T08:12:02.853Z,21.78
2022-08-27T08:14:32.221Z,22.14
2022-08-27T08:17:02.337Z,22.41
2022-08-27T08:19:32.886Z,21.32
2022-08-27T08:22:04.991Z,21.41
2022-08-27T08:24:35.369Z,21.65
2022-08-27T08:27:07.456Z,22.29
2022-08-27T08:29:37.516Z,22.51
2022-08-27T08:32:06.749Z,21.78
2022-08-27T08:34:35.934Z,21.73
2022-08-27T08:37:06.083Z,21.92
2022-08-27T08:39:36.211Z,21.93
2022-08-27T08:42:07.651Z,21.73
2022-08-27T08:44:48.503Z,22.30
2022-08-27T08:47:22.244Z,22.64
2022-08-27T08:50:08.178Z,23.06
2022-08-27T08:52:50.538Z,23.26
2022-08-27T08:55:47.429Z,23.22
2022-08-27T08:58:27.916Z,23.37
2022-08-27T09:01:01.237Z,23.48
2022-08-27T09:03:33.009Z,23.75
2022-08-27T09:06:07.236Z,23.30
2022-08-27T09:08:42.597Z,23.58
2022-08-27T09:11:30.221Z,22.99
2022-08-27T09:14:03.096Z,23.89
2022-08-27T09:16:32.582Z,24.18
2022-08-27T09:19:02.601Z,24.33
2022-08-27T09:21:55.757Z,24.24
2022-08-27T09:24:49.758Z,24.00
2022-08-27T09:27:20.168Z,22.46
2022-08-27T09:29:54.952Z,22.76
2022-08-27T09:32:31.472Z,23.21
2022-08-27T09:35:03.140Z,23.42
2022-08-27T09:37:39.931Z,23.41
2022-08-27T09:40:23.164Z,23.36
2022-08-27T09:42:55.914Z,23.52
2022-08-27T09:45:30.087Z,23.75
2022-08-27T09:48:22.680Z,23.37
2022-08-27T09:50:54.791Z,23.44
2022-08-27T09:53:30.883Z,23.37
2022-08-27T09:56:03.147Z,22.62
2022-08-27T09:58:46.731Z,23.17
2022-08-27T10:01:27.586Z,23.87
2022-08-27T10:04:12.613Z,23.86
2022-08-27T10:06:47.094Z,23.05
2022-08-27T10:09:21.811Z,22.55
2022-08-27T10:12:08.660Z,23.59
2022-08-27T10:14:44.251Z,24.12
2022-08-27T10:17:23.366Z,23.89
2022-08-27T10:20:30.457Z,23.22
2022-08-27T10:23:23.909Z,23.91
2022-08-27T10:26:09.075Z,23.67
2022-08-27T10:28:54.406Z,22.94
2022-08-27T10:31:47.776Z,23.11
2022-08-27T10:34:28.152Z,23.37
2022-08-27T10:37:40.467Z,23.55
2022-08-27T10:40:19.690Z,23.81
2022-08-27T10:42:48.101Z,24.17
2022-08-27T10:45:46.166Z,24.55
2022-08-27T10:48:31.078Z,24.59
2022-08-27T10:51:08.726Z,24.23
2022-08-27T10:53:58.443Z,24.45
2022-08-27T10:56:44.573Z,24.64
2022-08-27T10:59:38.718Z,24.05
2022-08-27T11:02:36.687Z,23.97
2022-08-27T11:05:20.534Z,23.67
2022-08-27T11:07:55.733Z,23.81
2022-08-27T11:10:30.915Z,24.43
2022-08-27T11:13:08.432Z,24.14
2022-08-27T11:15:41.613Z,23.38
2022-08-27T11:18:19.263Z,23.52
2022-08-27T11:21:10.407Z,23.81
2022-08-27T11:23:54.495Z,24.33
2022-08-27T11:26:23.153Z,24.51
2022-08-27T11:28:59.555Z,24.75
2022-08-27T11:31:38.202Z,25.02
2022-08-27T11:35:02.098Z,25.19
2022-08-27T11:38:12.873Z,24.37
2022-08-27T11:41:02.034Z,24.77
2022-08-27T11:43:35.329Z,25.27
2022-08-27T11:46:08.326Z,25.17
2022-08-27T11:48:41.038Z,25.21
2022-08-27T11:51:14.463Z,25.03
2022-08-27T11:54:00.081Z,24.40
2022-08-27T11:56:28.480Z,24.57
2022-08-27T11:59:28.486Z,24.92
2022-08-27T12:02:10.675Z,25.12
2022-08-27T12:04:42.480Z,25.63
2022-08-27T12:07:13.957Z,25.12
2022-08-27T12:09:51.432Z,24.85
2022-08-27T12:12:36.911Z,24.26
2022-08-27T12:15:17.677Z,24.93
2022-08-27T12:18:13.758Z,24.97
2022-08-27T12:21:06.441Z,24.79
2022-08-27T12:23:49.872Z,24.38
2022-08-27T12:26:35.413Z,24.96
2022-08-27T12:29:34.214Z,25.35
2022-08-27T12:32:36.071Z,24.88
2022-08-27T12:35:29.358Z,25.26
2022-08-27T12:38:21.034Z,25.27
2022-08-27T12:40:53.173Z,25.24
2022-08-27T12:43:27.505Z,25.21
2022-08-27T12:48:44.042Z,25.64
2022-08-27T12:51:18.628Z,25.45
2022-08-27T12:53:57.832Z,25.99
2022-08-27T12:56:34.593Z,25.01
2022-08-27T12:59:20.820Z,25.03
2022-08-27T13:01:58.310Z,25.88
2022-08-27T13:04:31.039Z,25.37
2022-08-27T13:06:59.801Z,24.98
2022-08-27T13:09:31.934Z,25.41
2022-08-27T13:12:03.060Z,25.22
2022-08-27T13:14:38.276Z,25.70
2022-08-27T13:17:15.408Z,25.00
2022-08-27T13:19:58.162Z,25.80
2022-08-27T13:22:35.990Z,25.97
2022-08-27T13:25:06.345Z,26.12
2022-08-27T13:27:37.513Z,26.01
2022-08-27T13:30:08.898Z,26.00
2022-08-27T13:32:39.166Z,26.01
2022-08-27T13:35:11.664Z,25.64
2022-08-27T13:37:45.020Z,25.42
2022-08-27T13:40:32.780Z,25.92
2022-08-27T13:43:13.570Z,25.94
2022-08-27T13:45:42.590Z,26.05
2022-08-27T13:48:12.869Z,24.91
2022-08-27T13:50:49.360Z,25.08
2022-08-27T13:53:42.304Z,25.49
2022-08-27T13:56:11.607Z,25.65
2022-08-27T13:58:40.098Z,25.51
2022-08-27T14:01:10.086Z,24.48
2022-08-27T14:03:55.299Z,24.18
2022-08-27T14:06:45.191Z,25.36
2022-08-27T14:09:28.118Z,25.60
2022-08-27T14:12:06.588Z,25.76
2022-08-27T14:14:41.138Z,25.40
2022-08-27T14:17:35.110Z,25.79
2022-08-27T14:20:06.848Z,25.41
2022-08-27T14:22:38.029Z,25.60
2022-08-27T14:25:06.985Z,25.48
2022-08-27T14:27:39.304Z,25.71
2022-08-27T14:30:16.921Z,26.06
2022-08-27T14:32:45.761Z,24.94
2022-08-27T14:35:16.598Z,24.84
2022-08-27T14:37:54.632Z,23.96
2022-08-27T14:40:23.478Z,24.74
2022-08-27T14:42:52.487Z,25.43
2022-08-27T14:45:23.193Z,25.54
2022-08-27T14:47:52.744Z,25.19
2022-08-27T14:50:21.872Z,25.44
2022-08-27T14:52:50.323Z,25.47
2022-08-27T14:55:18.888Z,25.81
2022-08-27T14:57:47.617Z,24.98
2022-08-27T15:00:17.226Z,24.39
2022-08-27T15:02:48.324Z,25.38
2022-08-27T15:05:19.687Z,24.66
2022-08-27T15:08:04.450Z,24.94
2022-08-27T15:10:33.329Z,24.62
2022-08-27T15:13:02.925Z,25.07
2022-08-27T15:15:31.512Z,24.25
2022-08-27T15:17:59.994Z,24.57
2022-08-27T15:20:28.443Z,23.93
2022-08-27T15:22:57.192Z,24.58
2022-08-27T15:25:26.028Z,24.33
2022-08-27T15:27:54.501Z,24.86
2022-08-27T15:30:27.251Z,24.51
2022-08-27T15:32:56.360Z,24.61
2022-08-27T15:35:27.437Z,25.05
2022-08-27T15:37:57.903Z,25.24
2022-08-27T15:40:32.721Z,25.38
2022-08-27T15:43:05.252Z,25.38
2022-08-27T15:45:34.684Z,25.22
2022-08-27T15:48:04.048Z,25.04
2022-08-27T15:50:34.316Z,24.57
2022-08-27T15:53:08.096Z,24.58
2022-08-27T15:55:41.457Z,24.92
2022-08-27T15:58:12.979Z,24.58
2022-08-27T16:00:44.300Z,25.14
2022-08-27T16:03:14.762Z,24.83
2022-08-27T16:05:46.171Z,24.72
2022-08-27T16:08:14.715Z,24.77
2022-08-27T16:10:44.292Z,25.30
2022-08-27T16:13:12.814Z,25.16
2022-08-27T16:15:41.866Z,25.10
2022-08-27T16:18:12.042Z,25.32
2022-08-27T16:20:42.442Z,25.16
2022-08-27T16:23:11.006Z,24.83
2022-08-27T16:25:40.312Z,24.75
2022-08-27T16:28:08.864Z,25.27
2022-08-27T16:30:40.906Z,25.20
2022-08-27T16:33:11.294Z,24.46
2022-08-27T16:35:39.914Z,24.71
2022-08-27T16:38:09.749Z,25.05
2022-08-27T16:40:48.786Z,25.22
2022-08-27T16:43:23.041Z,25.52
2022-08-27T16:45:53.658Z,25.35
2022-08-27T16:48:42.610Z,24.84
2022-08-27T16:51:24.188Z,24.88
2022-08-27T16:53:52.889Z,24.97
2022-08-27T16:56:28.702Z,25.17
2022-08-27T16:59:00.444Z,24.87
2022-08-27T17:01:30.051Z,23.99
2022-08-27T17:04:14.510Z,25.03
2022-08-27T17:06:45.145Z,24.96
2022-08-27T17:09:14.116Z,24.47
2022-08-27T17:11:46.409Z,24.23
2022-08-27T17:14:16.113Z,24.18
2022-08-27T17:16:48.366Z,24.89
2022-08-27T17:19:18.670Z,24.61
2022-08-27T17:21:47.218Z,24.87
2022-08-27T17:24:15.866Z,24.19
2022-08-27T17:26:45.425Z,24.53
2022-08-27T17:29:13.965Z,24.70
2022-08-27T17:31:43.650Z,24.87
2022-08-27T17:34:22.100Z,25.12
2022-08-27T17:36:55.756Z,24.81
2022-08-27T17:39:24.203Z,24.85
2022-08-27T17:41:53.420Z,24.38
2022-08-27T17:44:31.734Z,24.96
2022-08-27T17:47:02.933Z,24.78
2022-08-27T17:49:33.088Z,24.61
2022-08-27T17:52:05.393Z,24.75
2022-08-27T17:54:41.181Z,24.87
2022-08-27T17:57:41.015Z,24.99
2022-08-27T18:00:14.482Z,25.07
2022-08-27T18:02:46.657Z,25.12
2022-08-27T18:05:18.815Z,25.17
2022-08-27T18:07:48.906Z,24.73
2022-08-27T18:10:23.762Z,24.27
2022-08-27T18:12:55.220Z,24.52
2022-08-27T18:15:30.258Z,24.86
2022-08-27T18:17:59.423Z,24.92
2022-08-27T18:20:30.329Z,24.45
2022-08-27T18:23:00.200Z,24.43
2022-08-27T18:25:35.766Z,24.43
2022-08-27T18:28:08.057Z,23.83
2022-08-27T18:30:39.447Z,24.17
2022-08-27T18:33:08.744Z,24.20
2022-08-27T18:35:38.699Z,24.26
2022-08-27T18:38:07.526Z,24.16
2022-08-27T18:40:40.607Z,24.29
2022-08-27T18:43:09.244Z,24.34
2022-08-27T18:45:39.332Z,24.38
2022-08-27T18:48:21.640Z,24.33
2022-08-27T18:50:55.556Z,24.04
2022-08-27T18:53:26.057Z,23.27
2022-08-27T18:55:54.962Z,23.75
2022-08-27T18:58:23.935Z,23.84
2022-08-27T19:00:55.934Z,23.75
2022-08-27T19:03:33.945Z,23.58
2022-08-27T19:06:09.675Z,23.64
2022-08-27T19:08:39.659Z,23.22
2022-08-27T19:11:08.431Z,23.31
2022-08-27T19:13:37.247Z,23.56
2022-08-27T19:16:13.592Z,23.64
2022-08-27T19:18:43.035Z,23.78
2022-08-27T19:21:12.611Z,23.81
2022-08-27T19:23:42.323Z,23.54
2022-08-27T19:26:18.104Z,23.29
2022-08-27T19:28:47.572Z,23.53
2022-08-27T19:31:16.636Z,23.48
2022-08-27T19:33:45.298Z,22.91
2022-08-27T19:36:16.140Z,23.15
2022-08-27T19:38:46.478Z,23.64
2022-08-27T19:41:15.094Z,23.90
2022-08-27T19:43:45.963Z,23.02
2022-08-27T19:46:18.277Z,22.94
2022-08-27T19:48:47.505Z,23.22
2022-08-27T19:51:17.296Z,23.70
2022-08-27T19:53:45.970Z,23.55
2022-08-27T19:56:15.135Z,23.24
2022-08-27T19:58:44.643Z,23.20
2022-08-27T20:01:13.195Z,23.44
2022-08-27T20:03:41.735Z,23.76
2022-08-27T20:06:11.754Z,23.47
2022-08-27T20:08:40.194Z,23.48
2022-08-27T20:11:08.650Z,22.52
2022-08-27T20:13:37.990Z,23.10
2022-08-27T20:16:17.065Z,23.45
2022-08-27T20:18:47.677Z,23.50
2022-08-27T20:21:17.156Z,23.47
2022-08-27T20:23:45.826Z,23.63
2022-08-27T20:26:14.358Z,23.39
2022-08-27T20:28:43.258Z,23.42
2022-08-27T20:31:12.544Z,22.83
2022-08-27T20:33:41.314Z,23.06
2022-08-27T20:36:11.858Z,23.29
2022-08-27T20:38:40.438Z,22.95
2022-08-27T20:41:12.064Z,23.52
2022-08-27T20:43:40.514Z,22.71
2022-08-27T20:46:10.990Z,23.06
2022-08-27T20:48:39.602Z,23.70
2022-08-27T20:51:09.145Z,23.28
2022-08-27T20:53:37.736Z,23.42
2022-08-27T20:56:06.430Z,23.63
2022-08-27T20:58:54.617Z,23.47
2022-08-27T21:01:23.617Z,23.59
2022-08-27T21:03:52.201Z,23.03
2022-08-27T21:06:24.963Z,22.86
2022-08-27T21:08:54.891Z,22.64
2022-08-27T21:11:23.863Z,22.91
2022-08-27T21:13:56.450Z,22.94
2022-08-27T21:16:26.001Z,22.75
2022-08-27T21:18:55.723Z,22.66
2022-08-27T21:21:24.322Z,22.80
2022-08-27T21:23:53.206Z,22.79
2022-08-27T21:26:22.962Z,22.72
2022-08-27T21:28:55.608Z,22.21
2022-08-27T21:31:25.612Z,22.77
2022-08-27T21:33:54.383Z,22.62
2022-08-27T21:36:22.877Z,22.58
2022-08-27T21:38:51.618Z,22.67
2022-08-27T21:41:20.652Z,22.87
2022-08-27T21:43:49.689Z,23.04
2022-08-27T21:46:19.860Z,23.16
2022-08-27T21:48:58.502Z,23.04
2022-08-27T21:51:28.006Z,22.83
2022-08-27T21:53:57.620Z,22.56
2022-08-27T21:56:26.967Z,22.68
2022-08-27T21:58:55.740Z,22.45
2022-08-27T22:01:24.323Z,22.31
2022-08-27T22:03:52.940Z,22.50
2022-08-27T22:06:21.630Z,22.56
2022-08-27T22:08:50.258Z,22.19
2022-08-27T22:11:23.962Z,22.29
2022-08-27T22:13:53.267Z,22.53
2022-08-27T22:16:21.943Z,22.13
2022-08-27T22:18:54.989Z,21.88
2022-08-27T22:21:24.459Z,21.77
2022-08-27T22:23:53.207Z,22.06
2022-08-27T22:26:22.162Z,22.15
2022-08-27T22:28:50.857Z,21.92
2022-08-27T22:31:19.727Z,21.89
2022-08-27T22:33:48.436Z,21.76
2022-08-27T22:36:19.139Z,22.07
2022-08-27T22:38:48.715Z,22.09
2022-08-27T22:41:18.582Z,22.26
2022-08-27T22:43:47.280Z,22.05
2022-08-27T22:46:16.022Z,21.96
2022-08-27T22:48:44.842Z,21.92
2022-08-27T22:51:13.625Z,21.80
2022-08-27T22:53:42.156Z,21.97
2022-08-27T22:56:10.580Z,21.80
2022-08-27T22:58:40.637Z,21.63
2022-08-27T23:01:24.684Z,21.53
2022-08-27T23:03:54.061Z,21.47
2022-08-27T23:06:22.625Z,21.09
2022-08-27T23:08:51.551Z,21.25
2022-08-27T23:11:21.025Z,21.50
2022-08-27T23:13:51.741Z,21.40
2022-08-27T23:16:20.768Z,21.39
2022-08-27T23:18:49.237Z,21.16
2022-08-27T23:21:17.684Z,21.39
2022-08-27T23:23:46.269Z,21.55
2022-08-27T23:26:33.377Z,21.38
2022-08-27T23:29:01.883Z,21.11
2022-08-27T23:31:30.388Z,21.04
2022-08-27T23:33:58.904Z,21.20
2022-08-27T23:36:29.263Z,21.19
2022-08-27T23:38:58.417Z,20.92
2022-08-27T23:41:27.234Z,21.17
2022-08-27T23:43:55.778Z,21.42
2022-08-27T23:46:24.744Z,21.36
2022-08-27T23:48:53.357Z,21.30
2022-08-27T23:51:21.930Z,21.32
2022-08-27T23:53:50.407Z,20.95
2022-08-27T23:56:18.829Z,21.03
2022-08-27T23:58:48.363Z,20.65
